Briefing drone pour Echirolles

Rechercher une autre localisation

Conditions de vol :


Nous sommes le : Mardi 02 mars 2021
Il est 20:33 UTC (21:33 LT)

Lever de soleil : 05:46 UTC (06:46 LT)
Coucher de soleil : 17:52 UTC (18:52 LT)

Météo

L'essentiel des conditions de vol

VIGILANCE MÉTÉO FRANCE - Isère (38)
Pas de vigilances particulieres
METAR de LFLS
LFLS 022000Z AUTO VRB03KT CAVOK 07/01 Q1031 NOSIG

Date d'émission: 02/03/2021
Heure d'émission: 20:00 UTC
Vent: Variable 3 KT (6 km/h)
Visibilité horizontale: > 10 km
Plafond : Plafond et visibilité OK (CAVOK)
Température: 7 °C
Point de rosée: 1 °C
Humidité: 66%
Pression (QNH): 1031 hPa
Conditions: Pas de changement dans les 2 heures (NOSIG)
TAF de LFLS
LFLS 022008Z 0220/0315 CNL

Conditions prévues :

Heure d'émission : Bulletin éffectué le 02 à 20:00 UTC
Prévision : Valide du 02 a 20:00 UTC au 03 a 15:00 UTC
Nuages : à 0ft (0 m)
WEBCAM POUR ECHIROLLES

Réglementation

Voler en sécurité

CARTES AERONAUTIQUE 1/500.000
CARTES VAC (LFLS)
SUP AIP




Chargement des AIP...
NOTAM (ECHIROLLES + Terrain à proximité / FIR )




Chargement des NOTAMS...
CONTACT PREFECTURE 38


Avertissement : Les données mises à disposition sont indicatives. Oxygène Drone ne pourra être tenu responsable de dégâts causés aux biens et aux personnes.